Andrews AFB, Maryland
Current Conditions -  °F | °C
As of 2:55 AM on Thursday 29 Jan 2015 (Local Time) from KADW Reporting Station
Clear Clear  
Wind Chill: 24°   Ceiling: Unl
Heat Index: 24°   Visibility: 10mi
Dew Point:   Wind: 0mph
Humidity: 50%   Direction: NA
Pressure: 30.32"   Gusts: NA
Location:  38.8°N, 76.87°W
Report Text: KADW 290755Z 00000KT 10SM CLR M04/M13 A3032 RMK AO2A SLP273 T10431134 $
Loading
Personal Weather Stations






























Interactive Weather Map New forecast layout! Learn more

10-Day Weather Forecast

Advertisements
Track Severe Weather on mobile